Lumber Bridge, North Carolina
Current Conditions -  °F | °C
As of 7:53 PM on Saturday 20 Dec 2014 (Local Time) from KFAY Reporting Station
Haze Haze  
Wind Chill: 34°   Ceiling: 3200
Heat Index: 38°   Visibility: 6mi
Dew Point: 36°   Wind: 5mph
Humidity: 93%   Direction: 40°NE
Pressure: 30.27"   Gusts: NA
Location:  34.89°N, 79.07°W
Report Text: KFAY 210053Z 04004KT 6SM BR OVC032 03/02 A3027 RMK AO2 SLP247 T00330022
Loading
Personal Weather Stations






























Interactive Weather Map New forecast layout! Learn more

10-Day Weather Forecast

Advertisements
Track Severe Weather on mobile